Time;durP1;ratioP1;P1;durP2;ratioP2;P2;SDS_P1;SDS_P2;PMS_P1;PMS_P2;Temp;Humidity;BMP_temperature;BMP_pressure;BME280_temperature;BME280_humidity;BME280_pressure;Samples;Min_cycle;Max_cycle;Signal;HPM_P1;HPM_P2
2023/09/14 00:05:14;;;;;;;5.07;2.10;;;14.70;85.40;;;;;;20677604;28;20042;-42
2023/09/14 00:15:15;;;;;;;6.30;2.17;;;14.60;94.50;;;;;;20666440;28;20046;-42
2023/09/14 00:25:15;;;;;;;7.20;2.15;;;14.60;96.80;;;;;;20674246;28;20096;-42
2023/09/14 00:35:18;;;;;;;7.05;2.20;;;14.40;80.20;;;;;;20674788;28;20042;-42
2023/09/14 00:45:20;;;;;;;4.30;1.85;;;14.30;79.50;;;;;;20671821;28;20049;-42
2023/09/14 00:55:22;;;;;;;9.60;2.50;;;14.20;72.80;;;;;;20670786;28;20552;-42
2023/09/14 01:05:27;;;;;;;5.95;2.40;;;14.10;76.50;;;;;;20672270;28;20042;-42
2023/09/14 01:15:43;;;;;;;5.50;2.55;;;14.00;84.00;;;;;;20668055;28;20499;-42
2023/09/14 01:25:47;;;;;;;5.72;1.90;;;14.10;90.70;;;;;;20668210;28;20201;-42
2023/09/14 01:35:56;;;;;;;7.22;2.35;;;14.00;91.50;;;;;;20670174;28;20868;-42
2023/09/14 01:45:57;;;;;;;4.57;2.28;;;14.00;68.70;;;;;;20667174;28;20042;-42
2023/09/14 01:55:57;;;;;;;5.70;2.15;;;13.80;81.10;;;;;;20666423;28;20410;-42
2023/09/14 02:06:01;;;;;;;8.75;2.90;;;13.70;71.30;;;;;;20664751;28;20061;-42
2023/09/14 02:16:01;;;;;;;6.82;2.40;;;13.60;72.80;;;;;;20661511;28;20046;-42
2023/09/14 02:26:02;;;;;;;9.47;3.30;;;13.40;76.40;;;;;;20663197;28;20068;-42
2023/09/14 02:36:03;;;;;;;7.15;2.90;;;13.30;81.70;;;;;;20667734;28;20675;-42
2023/09/14 02:46:03;;;;;;;4.95;2.60;;;13.20;75.90;;;;;;20664289;28;20052;-42
2023/09/14 02:56:09;;;;;;;8.35;3.25;;;13.00;74.50;;;;;;20662472;28;20050;-42
2023/09/14 03:06:10;;;;;;;8.43;3.30;;;12.90;73.10;;;;;;20664166;28;20097;-42
2023/09/14 03:16:10;;;;;;;5.90;2.63;;;12.80;67.10;;;;;;20673853;28;20038;-42
2023/09/14 03:26:13;;;;;;;6.00;2.90;;;12.70;72.20;;;;;;20678286;28;20033;-42
2023/09/14 03:36:16;;;;;;;5.63;2.58;;;12.60;71.20;;;;;;20679944;28;20132;-42
2023/09/14 03:46:17;;;;;;;6.25;2.63;;;12.50;71.70;;;;;;20677095;28;20038;-42
2023/09/14 03:56:19;;;;;;;7.30;3.33;;;12.50;73.50;;;;;;20676527;28;20054;-42
2023/09/14 04:06:19;;;;;;;8.27;3.28;;;12.40;85.90;;;;;;20676916;28;20046;-42
2023/09/14 04:16:20;;;;;;;5.88;3.00;;;12.40;94.00;;;;;;20676206;28;20038;-42
2023/09/14 04:26:20;;;;;;;5.15;3.10;;;12.30;92.40;;;;;;20671284;28;20026;-42
2023/09/14 04:36:22;;;;;;;8.48;3.60;;;12.30;94.60;;;;;;20674762;28;20474;-42
2023/09/14 04:46:23;;;;;;;8.70;4.68;;;12.30;94.90;;;;;;20671580;28;20046;-42
2023/09/14 04:56:23;;;;;;;8.53;3.70;;;12.20;93.50;;;;;;20669686;28;20105;-42
2023/09/14 05:06:24;;;;;;;7.55;3.05;;;12.20;96.40;;;;;;20672165;28;20064;-42
2023/09/14 05:16:25;;;;;;;7.43;3.72;;;12.20;98.80;;;;;;20669294;28;20156;-42
2023/09/14 05:26:25;;;;;;;6.70;3.08;;;12.20;99.90;;;;;;20668670;28;20105;-42
2023/09/14 05:36:26;;;;;;;8.23;2.78;;;12.20;99.90;;;;;;20667566;28;20055;-42
2023/09/14 05:46:26;;;;;;;8.70;3.47;;;12.20;99.90;;;;;;20668381;28;20042;-42
2023/09/14 05:56:27;;;;;;;9.73;3.55;;;12.30;99.90;;;;;;20663610;28;20335;-42
2023/09/14 06:06:28;;;;;;;8.10;3.53;;;12.30;99.90;;;;;;20667926;28;20478;-42
2023/09/14 06:16:28;;;;;;;8.88;4.40;;;12.50;99.90;;;;;;20664849;28;20480;-42
2023/09/14 06:26:29;;;;;;;10.90;4.25;;;12.70;99.90;;;;;;20664451;28;20489;-42
2023/09/14 06:36:30;;;;;;;12.13;4.40;;;12.90;99.90;;;;;;20665693;28;20052;-42
2023/09/14 06:46:31;;;;;;;13.90;4.20;;;13.30;99.90;;;;;;20660253;28;20038;-42
2023/09/14 06:56:31;;;;;;;9.82;4.10;;;13.70;99.90;;;;;;20662620;28;20108;-42
2023/09/14 07:06:33;;;;;;;8.80;4.40;;;14.10;73.90;;;;;;20662603;28;20054;-42
2023/09/14 07:16:34;;;;;;;9.55;3.78;;;14.40;41.20;;;;;;20662372;28;20497;-41
2023/09/14 07:26:35;;;;;;;7.32;3.50;;;14.60;25.10;;;;;;20663313;28;20453;-41
2023/09/14 07:36:36;;;;;;;8.50;3.53;;;15.00;1.00;;;;;;20663718;28;20070;-42
2023/09/14 07:46:37;;;;;;;8.43;3.63;;;15.10;1.00;;;;;;20661427;28;20061;-42
2023/09/14 07:56:38;;;;;;;6.88;3.70;;;15.50;1.00;;;;;;20663133;28;20045;-42
2023/09/14 08:06:38;;;;;;;7.65;4.10;;;15.70;1.00;;;;;;20676150;28;20477;-42
2023/09/14 08:16:39;;;;;;;10.98;4.63;;;15.70;1.00;;;;;;20675079;28;20371;-42
2023/09/14 08:26:39;;;;;;;11.15;4.78;;;16.10;1.00;;;;;;20675100;28;20052;-42
2023/09/14 08:36:40;;;;;;;8.80;3.97;;;16.50;1.00;;;;;;20674959;28;20042;-42
2023/09/14 08:46:42;;;;;;;9.93;4.13;;;16.80;1.00;;;;;;20673331;28;20042;-43
2023/09/14 08:56:43;;;;;;;7.75;3.92;;;17.40;1.00;;;;;;20671212;28;20042;-42
2023/09/14 09:06:44;;;;;;;8.50;4.10;;;17.80;1.00;;;;;;20674224;28;20041;-42
2023/09/14 09:16:45;;;;;;;8.35;3.92;;;18.10;1.00;;;;;;20671254;28;20045;-42
2023/09/14 09:26:45;;;;;;;9.40;4.53;;;18.40;1.00;;;;;;20670142;28;20050;-42
2023/09/14 09:36:46;;;;;;;8.43;4.57;;;18.50;1.00;;;;;;20667565;28;20145;-42
2023/09/14 09:46:47;;;;;;;8.67;4.63;;;18.50;1.00;;;;;;20668664;28;20050;-42
2023/09/14 09:56:48;;;;;;;7.18;3.90;;;18.30;1.00;;;;;;20665040;28;20050;-42
2023/09/14 10:06:55;;;;;;;12.70;4.72;;;18.30;1.00;;;;;;20665073;28;20125;-42
2023/09/14 10:16:57;;;;;;;7.03;3.33;;;18.70;1.00;;;;;;20667129;28;20045;-42
2023/09/14 10:26:59;;;;;;;8.55;3.50;;;19.00;1.00;;;;;;20664470;28;20397;-42
2023/09/14 10:37:01;;;;;;;6.53;2.42;;;19.40;1.00;;;;;;20665147;28;20557;-42
2023/09/14 10:47:03;;;;;;;5.07;2.08;;;19.50;1.00;;;;;;20664589;28;20065;-42
2023/09/14 10:57:13;;;;;;;7.13;2.80;;;19.30;1.00;;;;;;20663578;28;20160;-42
2023/09/14 11:07:39;;;;;;;5.70;2.75;;;19.60;1.00;;;;;;20666525;28;20042;-42
2023/09/14 11:17:43;;;;;;;4.97;2.30;;;20.00;1.00;;;;;;20665060;28;20157;-42
2023/09/14 11:27:44;;;;;;;7.90;2.75;;;20.60;1.00;;;;;;20661608;28;20426;-42
2023/09/14 11:37:46;;;;;;;4.90;2.35;;;20.90;1.00;;;;;;20676769;28;20048;-42
2023/09/14 11:47:47;;;;;;;6.00;2.90;;;21.50;1.00;;;;;;20680117;28;20071;-42
2023/09/14 11:57:48;;;;;;;6.88;3.28;;;21.90;1.00;;;;;;20675712;28;20046;-42
2023/09/14 12:07:49;;;;;;;5.68;2.92;;;22.40;1.00;;;;;;20679726;28;20367;-42
2023/09/14 12:17:54;;;;;;;5.60;2.92;;;22.80;1.00;;;;;;20678310;28;20398;-42
2023/09/14 12:27:55;;;;;;;6.07;2.67;;;22.60;1.00;;;;;;20673068;28;20069;-42
2023/09/14 12:38:03;;;;;;;8.25;3.40;;;22.40;1.00;;;;;;20674133;28;20069;-42
2023/09/14 12:48:07;;;;;;;6.85;2.70;;;21.70;1.00;;;;;;20673545;28;20042;-42
2023/09/14 12:58:08;;;;;;;7.10;3.00;;;21.00;1.00;;;;;;20672663;28;20051;-42
2023/09/14 13:08:09;;;;;;;6.15;2.50;;;22.30;1.00;;;;;;20672114;28;20042;-42
2023/09/14 13:18:11;;;;;;;5.88;2.67;;;21.90;1.00;;;;;;20670145;28;20233;-42
2023/09/14 13:28:12;;;;;;;5.85;2.65;;;21.80;1.00;;;;;;20668852;28;20037;-42
2023/09/14 13:38:13;;;;;;;5.88;2.58;;;22.80;1.00;;;;;;20669520;28;20034;-42
2023/09/14 13:48:13;;;;;;;5.47;2.80;;;22.30;1.00;;;;;;20670646;28;20490;-42
2023/09/14 13:58:14;;;;;;;4.63;2.42;;;22.50;1.00;;;;;;20665614;28;20060;-42
2023/09/14 14:08:15;;;;;;;7.77;2.93;;;23.00;1.00;;;;;;20669766;28;20453;-42
2023/09/14 14:18:16;;;;;;;4.90;2.75;;;22.80;1.00;;;;;;20667036;28;20089;-42
2023/09/14 14:28:17;;;;;;;4.88;3.13;;;22.90;1.00;;;;;;20666165;28;20044;-42
2023/09/14 14:38:17;;;;;;;5.88;2.95;;;23.30;1.00;;;;;;20664398;28;20041;-42
2023/09/14 14:48:18;;;;;;;5.70;2.92;;;22.80;1.00;;;;;;20665834;28;20413;-42
2023/09/14 14:58:19;;;;;;;4.75;2.58;;;22.40;1.00;;;;;;20662658;28;20054;-42
2023/09/14 15:08:20;;;;;;;4.72;2.88;;;22.20;1.00;;;;;;20670989;28;20494;-42
2023/09/14 15:18:20;;;;;;;7.55;3.20;;;22.00;1.00;;;;;;20680755;28;20053;-42
2023/09/14 15:28:22;;;;;;;6.10;2.83;;;22.40;1.00;;;;;;20679634;28;20066;-42
2023/09/14 15:38:22;;;;;;;5.15;2.22;;;22.40;1.00;;;;;;20676500;28;20041;-42
2023/09/14 15:48:23;;;;;;;4.15;2.60;;;22.30;1.00;;;;;;20679388;28;20572;-42
2023/09/14 15:58:24;;;;;;;3.65;2.30;;;22.00;1.00;;;;;;20674763;28;20042;-42
2023/09/14 16:08:24;;;;;;;3.60;2.40;;;21.40;1.00;;;;;;20677681;28;20090;-42
2023/09/14 16:18:25;;;;;;;5.20;2.55;;;21.30;1.00;;;;;;20673845;28;20045;-42
2023/09/14 16:28:25;;;;;;;7.80;2.55;;;20.90;1.00;;;;;;20675317;28;20478;-42
2023/09/14 16:38:26;;;;;;;6.60;2.72;;;20.70;1.00;;;;;;20674461;28;20048;-42
2023/09/14 16:48:26;;;;;;;5.80;2.97;;;20.40;1.00;;;;;;20674393;28;20045;-42
2023/09/14 16:58:28;;;;;;;5.45;2.55;;;20.20;1.00;;;;;;20671216;28;20116;-42
2023/09/14 17:08:28;;;;;;;5.80;2.67;;;20.00;1.00;;;;;;20673649;28;20500;-42
2023/09/14 17:18:29;;;;;;;6.47;3.00;;;19.90;1.00;;;;;;20671405;28;20055;-42
2023/09/14 17:28:29;;;;;;;6.95;4.03;;;19.70;1.00;;;;;;20668386;28;20096;-42
2023/09/14 17:38:30;;;;;;;5.68;2.90;;;19.50;1.00;;;;;;20669558;28;20050;-42
2023/09/14 17:48:30;;;;;;;4.72;2.97;;;19.20;1.00;;;;;;20669491;28;20453;-42
2023/09/14 17:58:31;;;;;;;5.47;3.45;;;18.90;1.00;;;;;;20665613;28;20382;-42
2023/09/14 18:08:31;;;;;;;8.03;3.37;;;18.80;1.00;;;;;;20668239;28;20370;-42
2023/09/14 18:18:32;;;;;;;5.03;2.92;;;18.60;1.00;;;;;;20667587;28;20437;-42
2023/09/14 18:28:33;;;;;;;6.88;3.33;;;18.30;1.00;;;;;;20665036;28;20535;-42
2023/09/14 18:38:33;;;;;;;6.50;3.53;;;18.10;1.00;;;;;;20666158;28;20049;-42
2023/09/14 18:48:34;;;;;;;6.28;3.70;;;17.90;1.00;;;;;;20665440;28;20069;-42
2023/09/14 18:58:34;;;;;;;5.85;3.60;;;17.80;1.00;;;;;;20662404;28;20072;-42
2023/09/14 19:08:35;;;;;;;7.35;3.90;;;17.60;1.00;;;;;;20666312;28;20034;-42
2023/09/14 19:18:36;;;;;;;7.28;4.22;;;17.50;1.00;;;;;;20665085;28;20065;-42
2023/09/14 19:28:37;;;;;;;5.45;4.03;;;17.30;1.00;;;;;;20663660;28;20184;-42
2023/09/14 19:38:39;;;;;;;6.97;4.27;;;17.10;1.00;;;;;;20664782;28;20053;-42
2023/09/14 19:48:43;;;;;;;7.57;4.35;;;16.90;1.00;;;;;;20663850;28;20121;-42
2023/09/14 19:58:44;;;;;;;7.65;4.50;;;16.80;1.00;;;;;;20673479;28;20125;-42
2023/09/14 20:08:45;;;;;;;7.90;4.67;;;16.60;1.00;;;;;;20678373;28;20045;-42
2023/09/14 20:18:45;;;;;;;8.57;5.37;;;16.40;1.00;;;;;;20675793;28;20042;-42
2023/09/14 20:28:46;;;;;;;8.45;5.28;;;16.40;1.00;;;;;;20673364;28;20508;-42
2023/09/14 20:38:47;;;;;;;14.20;6.30;;;16.30;1.00;;;;;;20672370;28;20119;-42
2023/09/14 20:48:48;;;;;;;9.38;6.00;;;16.30;1.00;;;;;;20672961;28;20119;-42
2023/09/14 20:58:48;;;;;;;8.77;6.20;;;16.30;1.00;;;;;;20671380;28;20585;-42
2023/09/14 21:08:50;;;;;;;9.20;5.82;;;16.30;1.00;;;;;;20672017;28;20049;-42
2023/09/14 21:18:50;;;;;;;7.63;6.18;;;16.30;1.00;;;;;;20668993;28;20042;-42
2023/09/14 21:28:51;;;;;;;8.18;6.55;;;16.20;1.00;;;;;;20670084;28;20034;-42
2023/09/14 21:38:51;;;;;;;9.48;7.05;;;16.20;1.00;;;;;;20670507;28;20034;-42
2023/09/14 21:48:52;;;;;;;9.90;6.95;;;16.20;1.00;;;;;;20667689;28;20038;-42
2023/09/14 21:58:52;;;;;;;12.27;8.00;;;16.20;1.00;;;;;;20667036;28;20058;-42
2023/09/14 22:08:53;;;;;;;9.40;7.20;;;16.10;1.00;;;;;;20666930;28;20038;-42
2023/09/14 22:18:54;;;;;;;10.70;8.38;;;16.10;1.00;;;;;;20664997;28;20070;-41
2023/09/14 22:28:54;;;;;;;10.55;8.48;;;16.10;1.00;;;;;;20666616;28;20125;-42
2023/09/14 22:38:55;;;;;;;10.15;8.75;;;15.90;1.00;;;;;;20664849;28;20049;-42
2023/09/14 22:48:56;;;;;;;13.63;10.40;;;15.90;1.00;;;;;;20666205;28;20591;-42
2023/09/14 22:58:57;;;;;;;13.13;9.60;;;15.90;1.00;;;;;;20664741;28;20136;-42
2023/09/14 23:08:57;;;;;;;14.10;10.88;;;15.90;1.00;;;;;;20662629;28;20115;-42
2023/09/14 23:18:58;;;;;;;15.23;10.85;;;15.90;1.00;;;;;;20663019;28;20109;-42
2023/09/14 23:29:00;;;;;;;14.88;11.02;;;15.90;1.00;;;;;;20666916;28;20406;-42
2023/09/14 23:39:00;;;;;;;14.38;11.40;;;15.80;1.00;;;;;;20677138;28;20039;-42
2023/09/14 23:49:03;;;;;;;18.60;13.77;;;15.80;1.00;;;;;;20678739;28;20520;-42
2023/09/14 23:59:07;;;;;;;15.20;11.55;;;15.70;1.00;;;;;;20673359;28;20563;-42
